createdAt,value
2023-03-17T00:00:17.627Z,72.30
2023-03-17T00:02:45.482Z,71.71
2023-03-17T00:05:24.106Z,71.91
2023-03-17T00:07:52.818Z,72.94
2023-03-17T00:10:22.267Z,73.33
2023-03-17T00:12:53.032Z,75.73
2023-03-17T00:15:20.945Z,76.33
2023-03-17T00:17:49.014Z,77.32
2023-03-17T00:20:25.579Z,73.86
2023-03-17T00:22:52.803Z,73.70
2023-03-17T00:25:23.069Z,73.73
2023-03-17T00:27:51.577Z,72.95
2023-03-17T00:30:19.225Z,72.64
2023-03-17T00:32:46.110Z,73.16
2023-03-17T00:35:18.351Z,74.10
2023-03-17T00:37:45.299Z,74.19
2023-03-17T00:40:16.763Z,75.11
2023-03-17T00:42:43.599Z,74.03
2023-03-17T00:45:12.586Z,74.54
2023-03-17T00:47:39.514Z,74.97
2023-03-17T00:50:10.261Z,74.58
2023-03-17T00:52:37.057Z,76.15
2023-03-17T00:55:04.395Z,77.83
2023-03-17T00:57:31.253Z,77.50
2023-03-17T00:59:58.129Z,80.62
2023-03-17T01:02:26.360Z,78.67
2023-03-17T01:05:05.485Z,79.14
2023-03-17T01:07:32.844Z,78.14
2023-03-17T01:09:59.644Z,76.88
2023-03-17T01:12:26.632Z,76.09
2023-03-17T01:14:53.549Z,75.98
2023-03-17T01:17:21.063Z,77.86
2023-03-17T01:19:49.274Z,79.70
2023-03-17T01:22:16.075Z,77.82
2023-03-17T01:24:42.880Z,77.56
2023-03-17T01:27:10.005Z,76.96
2023-03-17T01:29:36.763Z,76.36
2023-03-17T01:32:03.721Z,77.75
2023-03-17T01:34:30.482Z,78.47
2023-03-17T01:36:58.691Z,77.55
2023-03-17T01:39:25.482Z,77.80
2023-03-17T01:41:52.226Z,78.50
2023-03-17T01:44:19.250Z,78.28
2023-03-17T01:46:46.074Z,76.75
2023-03-17T01:49:18.765Z,76.12
2023-03-17T01:51:54.553Z,75.44
2023-03-17T01:54:28.677Z,75.98
2023-03-17T01:56:58.654Z,76.47
2023-03-17T01:59:30.732Z,77.42
2023-03-17T02:02:02.520Z,77.17
2023-03-17T02:04:30.209Z,74.93
2023-03-17T02:06:58.637Z,75.33
2023-03-17T02:09:28.298Z,77.96
2023-03-17T02:11:56.812Z,77.01
2023-03-17T02:14:23.594Z,76.44
2023-03-17T02:16:50.497Z,75.38
2023-03-17T02:19:17.351Z,75.86
2023-03-17T02:21:47.095Z,75.98
2023-03-17T02:24:22.341Z,75.73
2023-03-17T02:26:51.628Z,76.79
2023-03-17T02:29:20.241Z,78.15
2023-03-17T02:31:47.028Z,78.19
2023-03-17T02:34:13.784Z,78.94
2023-03-17T02:36:40.513Z,78.96
2023-03-17T02:39:08.762Z,80.23
2023-03-17T02:41:36.087Z,79.49
2023-03-17T02:44:02.943Z,77.78
2023-03-17T02:46:29.764Z,76.21
2023-03-17T02:48:56.698Z,76.12
2023-03-17T02:51:23.987Z,76.43
2023-03-17T02:53:50.721Z,76.29
2023-03-17T02:56:18.904Z,75.95
2023-03-17T02:58:45.701Z,77.19
2023-03-17T03:01:12.596Z,78.55
2023-03-17T03:03:39.405Z,79.78
2023-03-17T03:06:06.774Z,79.08
2023-03-17T03:08:33.525Z,78.91
2023-03-17T03:11:00.326Z,77.15
2023-03-17T03:13:28.432Z,76.95
2023-03-17T03:15:55.198Z,77.88
2023-03-17T03:18:21.958Z,77.59
2023-03-17T03:20:48.745Z,77.46
2023-03-17T03:23:15.620Z,77.18
2023-03-17T03:25:42.637Z,77.83
2023-03-17T03:28:09.717Z,77.85
2023-03-17T03:30:38.243Z,77.46
2023-03-17T03:33:05.705Z,79.32
2023-03-17T03:35:32.859Z,79.72
2023-03-17T03:37:59.750Z,82.94
2023-03-17T03:40:26.527Z,84.15
2023-03-17T03:42:53.284Z,82.33
2023-03-17T03:45:20.265Z,80.87
2023-03-17T03:47:48.426Z,80.55
2023-03-17T03:50:15.389Z,79.62
2023-03-17T03:52:42.134Z,79.07
2023-03-17T03:55:09.511Z,77.77
2023-03-17T03:57:36.550Z,78.80
2023-03-17T04:00:03.997Z,78.80
2023-03-17T04:02:30.811Z,79.03
2023-03-17T04:04:59.088Z,79.45
2023-03-17T04:07:25.867Z,79.92
2023-03-17T04:09:52.639Z,80.03
2023-03-17T04:12:19.752Z,81.27
2023-03-17T04:14:46.553Z,83.49
2023-03-17T04:17:14.256Z,81.83
2023-03-17T04:19:41.045Z,80.62
2023-03-17T04:22:11.912Z,80.58
2023-03-17T04:24:38.831Z,80.87
2023-03-17T04:27:06.303Z,81.45
2023-03-17T04:29:33.349Z,82.51
2023-03-17T04:32:00.127Z,81.53
2023-03-17T04:34:26.895Z,82.83
2023-03-17T04:36:53.800Z,82.38
2023-03-17T04:39:21.920Z,82.60
2023-03-17T04:41:48.736Z,83.23
2023-03-17T04:44:15.453Z,83.34
2023-03-17T04:46:42.250Z,83.41
2023-03-17T04:49:09.119Z,83.73
2023-03-17T04:51:36.123Z,86.03
2023-03-17T04:54:03.133Z,85.04
2023-03-17T04:56:32.094Z,84.69
2023-03-17T04:58:59.148Z,83.84
2023-03-17T05:01:26.286Z,83.76
2023-03-17T05:03:53.123Z,82.59
2023-03-17T05:06:20.075Z,82.50
2023-03-17T05:08:46.861Z,84.17
2023-03-17T05:11:14.950Z,84.56
2023-03-17T05:13:43.152Z,85.84
2023-03-17T05:16:10.749Z,87.13
2023-03-17T05:18:38.101Z,86.05
2023-03-17T05:21:05.622Z,84.97
2023-03-17T05:23:32.804Z,82.98
2023-03-17T05:25:59.596Z,82.88
2023-03-17T05:28:26.782Z,81.87
2023-03-17T05:30:55.500Z,81.60
2023-03-17T05:33:22.395Z,81.06
2023-03-17T05:35:49.224Z,80.14
2023-03-17T05:38:16.708Z,81.30
2023-03-17T05:40:43.901Z,83.04
2023-03-17T05:43:10.788Z,85.58
2023-03-17T05:45:37.900Z,87.23
2023-03-17T05:48:06.239Z,86.55
2023-03-17T05:50:33.439Z,83.83
2023-03-17T05:53:00.212Z,83.28
2023-03-17T05:55:27.006Z,82.23
2023-03-17T05:57:53.818Z,82.38
2023-03-17T06:00:21.309Z,82.99
2023-03-17T06:02:48.038Z,85.76
2023-03-17T06:05:16.298Z,85.21
2023-03-17T06:07:53.033Z,82.09
2023-03-17T06:10:22.245Z,83.67
2023-03-17T06:12:49.096Z,83.04
2023-03-17T06:15:16.081Z,84.61
2023-03-17T06:17:43.029Z,85.74
2023-03-17T06:20:11.041Z,86.80
2023-03-17T06:22:46.267Z,84.86
2023-03-17T06:25:18.671Z,84.28
2023-03-17T06:27:45.532Z,83.95
2023-03-17T06:30:13.021Z,82.76
2023-03-17T06:32:39.777Z,82.24
2023-03-17T06:35:07.496Z,80.59
2023-03-17T06:37:35.034Z,80.62
2023-03-17T06:40:03.903Z,81.04
2023-03-17T06:42:30.809Z,84.86
2023-03-17T06:44:57.573Z,84.03
2023-03-17T06:47:26.009Z,81.94
2023-03-17T06:49:52.909Z,84.46
2023-03-17T06:52:19.862Z,80.96
2023-03-17T06:54:46.577Z,78.07
2023-03-17T06:57:14.776Z,75.46
2023-03-17T06:59:41.639Z,76.21
2023-03-17T07:02:09.821Z,71.70
2023-03-17T07:04:40.204Z,65.81
2023-03-17T07:07:07.236Z,63.30
2023-03-17T07:09:34.738Z,61.74
2023-03-17T07:12:02.131Z,60.51
2023-03-17T07:14:31.461Z,59.58
2023-03-17T07:16:58.373Z,58.26
2023-03-17T07:19:25.746Z,56.89
2023-03-17T07:21:52.992Z,55.66
2023-03-17T07:24:19.932Z,55.55
2023-03-17T07:26:46.809Z,54.23
2023-03-17T07:29:13.706Z,53.92
2023-03-17T07:31:42.362Z,52.81
2023-03-17T07:34:09.167Z,51.78
2023-03-17T07:36:36.189Z,51.60
2023-03-17T07:39:03.693Z,51.64
2023-03-17T07:41:30.607Z,49.95
2023-03-17T07:43:57.621Z,49.45
2023-03-17T07:46:25.012Z,49.16
2023-03-17T07:48:53.351Z,50.36
2023-03-17T07:51:22.361Z,49.84
2023-03-17T07:53:49.675Z,50.06
2023-03-17T07:56:16.980Z,49.31
2023-03-17T07:58:44.145Z,48.96
2023-03-17T08:01:10.878Z,48.08
2023-03-17T08:03:39.971Z,47.57
2023-03-17T08:06:09.635Z,47.44
2023-03-17T08:08:36.530Z,47.11
2023-03-17T08:11:05.120Z,49.29
2023-03-17T08:13:32.639Z,49.59
2023-03-17T08:15:59.771Z,47.06
2023-03-17T08:18:28.512Z,49.06
2023-03-17T08:20:55.356Z,47.29
2023-03-17T08:23:23.500Z,44.84
2023-03-17T08:25:50.486Z,47.40
2023-03-17T08:28:17.275Z,47.38
2023-03-17T08:30:44.237Z,47.56
2023-03-17T08:33:11.305Z,47.83
2023-03-17T08:35:40.978Z,47.24
2023-03-17T08:38:08.255Z,47.00
2023-03-17T08:40:36.766Z,46.53
2023-03-17T08:43:04.061Z,46.49
2023-03-17T08:45:31.111Z,46.39
2023-03-17T08:47:58.519Z,46.13
2023-03-17T08:50:26.304Z,45.69
2023-03-17T08:52:53.391Z,44.95
2023-03-17T08:55:20.433Z,45.30
2023-03-17T08:57:48.904Z,45.71
2023-03-17T09:00:17.971Z,45.20
2023-03-17T09:02:44.951Z,45.92
2023-03-17T09:05:13.042Z,45.65
2023-03-17T09:07:40.182Z,46.16
2023-03-17T09:10:09.704Z,45.52
2023-03-17T09:12:37.401Z,45.07
2023-03-17T09:15:06.962Z,44.34
2023-03-17T09:17:33.753Z,44.85
2023-03-17T09:20:00.575Z,44.73
2023-03-17T09:22:27.460Z,45.11
2023-03-17T09:24:54.194Z,46.33
2023-03-17T09:27:20.931Z,45.11
2023-03-17T09:29:47.766Z,45.94
2023-03-17T09:32:16.178Z,45.51
2023-03-17T09:34:43.132Z,44.92
2023-03-17T09:37:10.016Z,44.92
2023-03-17T09:39:36.875Z,45.42
2023-03-17T09:42:17.254Z,44.19
2023-03-17T09:45:11.083Z,43.06
2023-03-17T09:47:53.168Z,43.08
2023-03-17T09:50:25.270Z,42.54
2023-03-17T09:52:55.100Z,44.64
2023-03-17T09:55:26.700Z,43.75
2023-03-17T09:57:55.200Z,43.30
2023-03-17T10:00:23.157Z,42.55
2023-03-17T10:02:52.674Z,42.06
2023-03-17T10:05:22.308Z,43.19
2023-03-17T10:07:55.635Z,40.96
2023-03-17T10:10:29.848Z,42.49
2023-03-17T10:13:02.958Z,43.54
2023-03-17T10:15:35.774Z,42.97
2023-03-17T10:18:09.658Z,43.20
2023-03-17T10:20:44.461Z,42.38
2023-03-17T10:23:15.507Z,42.76
2023-03-17T10:25:42.264Z,42.06
2023-03-17T10:28:23.337Z,43.10
2023-03-17T10:30:50.320Z,41.77
2023-03-17T10:33:19.020Z,41.88
2023-03-17T10:35:46.128Z,41.42
2023-03-17T10:38:17.718Z,41.45
2023-03-17T10:40:46.569Z,41.19
2023-03-17T10:43:18.725Z,42.29
2023-03-17T10:45:54.926Z,42.11
2023-03-17T10:48:23.215Z,42.03
2023-03-17T10:50:50.492Z,41.43
2023-03-17T10:53:21.187Z,41.71
2023-03-17T10:55:50.479Z,40.70
2023-03-17T10:58:19.698Z,39.96
2023-03-17T11:00:55.708Z,39.48
2023-03-17T11:03:27.297Z,38.63
2023-03-17T11:06:01.340Z,40.40
2023-03-17T11:08:32.446Z,38.60
2023-03-17T11:10:59.340Z,40.03
2023-03-17T11:13:29.592Z,38.60
2023-03-17T11:16:07.881Z,38.98
2023-03-17T11:18:38.384Z,38.82
2023-03-17T11:21:09.444Z,38.36
2023-03-17T11:23:50.244Z,37.42
2023-03-17T11:26:48.343Z,37.50
2023-03-17T11:29:22.704Z,36.67
2023-03-17T11:31:55.749Z,37.12
2023-03-17T11:34:36.741Z,36.39
2023-03-17T11:37:15.157Z,37.88
2023-03-17T11:39:49.964Z,36.40
2023-03-17T11:42:22.669Z,36.08
2023-03-17T11:45:15.081Z,36.32
2023-03-17T11:48:01.377Z,37.35
2023-03-17T11:50:34.778Z,35.55
2023-03-17T11:53:21.212Z,34.60
2023-03-17T11:55:51.340Z,34.87
2023-03-17T11:58:28.047Z,35.39
2023-03-17T12:00:58.480Z,34.45
2023-03-17T12:03:35.705Z,33.85
2023-03-17T12:06:11.328Z,33.60
2023-03-17T12:08:42.590Z,34.34
2023-03-17T12:11:13.031Z,34.32
2023-03-17T12:13:45.324Z,34.23
2023-03-17T12:16:19.396Z,33.82
2023-03-17T12:18:56.225Z,32.57
2023-03-17T12:21:30.976Z,33.71
2023-03-17T12:24:02.681Z,34.47
2023-03-17T12:26:36.871Z,34.50
2023-03-17T12:29:10.070Z,33.26
2023-03-17T12:31:41.313Z,34.35
2023-03-17T12:34:15.147Z,34.40
2023-03-17T12:36:44.666Z,33.56
2023-03-17T12:39:14.556Z,32.06
2023-03-17T12:42:04.707Z,34.54
2023-03-17T12:44:44.702Z,33.87
2023-03-17T12:47:33.414Z,33.70
2023-03-17T12:50:14.572Z,34.50
2023-03-17T12:53:06.460Z,36.15
2023-03-17T12:55:34.560Z,33.32
2023-03-17T12:58:03.586Z,33.39
2023-03-17T13:00:32.386Z,33.29
2023-03-17T13:03:19.010Z,34.25
2023-03-17T13:05:49.535Z,33.90
2023-03-17T13:08:24.291Z,33.16
2023-03-17T13:10:51.217Z,35.03
2023-03-17T13:13:40.347Z,34.32
2023-03-17T13:16:26.889Z,34.43
2023-03-17T13:19:17.264Z,34.16
2023-03-17T13:21:45.588Z,35.03
2023-03-17T13:24:40.348Z,35.06
2023-03-17T13:27:11.208Z,33.78
2023-03-17T13:29:41.291Z,35.51
2023-03-17T13:32:33.889Z,35.69
2023-03-17T13:35:19.341Z,35.55
2023-03-17T13:38:19.440Z,34.35
2023-03-17T13:41:01.848Z,34.09
2023-03-17T13:43:49.650Z,33.03
2023-03-17T13:46:25.608Z,33.14
2023-03-17T13:48:54.952Z,34.28
2023-03-17T13:51:23.837Z,34.49
2023-03-17T13:53:54.816Z,33.94
2023-03-17T13:56:45.988Z,35.49
2023-03-17T13:59:14.413Z,34.53
2023-03-17T14:01:47.249Z,34.37
2023-03-17T14:04:20.586Z,34.29
2023-03-17T14:06:51.931Z,35.10
2023-03-17T14:09:32.399Z,36.11
2023-03-17T14:12:05.341Z,35.58
2023-03-17T14:14:41.045Z,35.61
2023-03-17T14:17:14.292Z,37.04
2023-03-17T14:19:41.627Z,37.44
2023-03-17T14:22:22.984Z,36.92
2023-03-17T14:24:53.638Z,36.81
2023-03-17T14:27:22.773Z,36.97
2023-03-17T14:29:50.355Z,37.71
2023-03-17T14:32:19.589Z,37.57
2023-03-17T14:34:47.996Z,36.51
2023-03-17T14:37:15.690Z,37.03
2023-03-17T14:39:47.643Z,37.15
2023-03-17T14:42:17.361Z,37.29
2023-03-17T14:44:45.592Z,37.07
2023-03-17T14:47:18.025Z,36.47
2023-03-17T14:49:45.011Z,36.85
2023-03-17T14:52:20.371Z,37.27
2023-03-17T14:54:51.175Z,36.82
2023-03-17T14:57:21.271Z,36.50
2023-03-17T14:59:58.505Z,37.34
2023-03-17T15:02:30.926Z,37.43
2023-03-17T15:05:01.685Z,37.26
2023-03-17T15:07:31.890Z,37.29
2023-03-17T15:10:00.189Z,37.45
2023-03-17T15:12:27.986Z,38.43
2023-03-17T15:15:00.143Z,37.99
2023-03-17T15:17:30.442Z,38.07
2023-03-17T15:20:01.425Z,37.92
2023-03-17T15:22:31.344Z,37.26
2023-03-17T15:25:03.102Z,37.70
2023-03-17T15:27:31.723Z,38.71
2023-03-17T15:30:00.317Z,37.72
2023-03-17T15:32:28.848Z,38.70
2023-03-17T15:34:56.395Z,38.16
2023-03-17T15:37:25.274Z,37.95
2023-03-17T15:39:52.790Z,38.63
2023-03-17T15:42:21.445Z,39.36
2023-03-17T15:44:48.217Z,38.70
2023-03-17T15:47:18.477Z,38.59
2023-03-17T15:49:46.717Z,39.43
2023-03-17T15:52:16.278Z,39.68
2023-03-17T15:54:44.576Z,41.13
2023-03-17T15:57:11.791Z,40.78
2023-03-17T15:59:38.959Z,40.11
2023-03-17T16:02:24.716Z,40.47
2023-03-17T16:04:52.070Z,40.68
2023-03-17T16:07:19.135Z,41.32
2023-03-17T16:09:45.933Z,41.43
2023-03-17T16:12:13.211Z,41.57
2023-03-17T16:14:40.156Z,41.71
2023-03-17T16:17:10.218Z,41.42
2023-03-17T16:19:38.414Z,42.01
2023-03-17T16:22:05.866Z,42.15
2023-03-17T16:24:32.610Z,42.32
2023-03-17T16:26:59.357Z,42.65
2023-03-17T16:47:45.143Z,45.72
2023-03-17T16:50:16.804Z,45.94
2023-03-17T16:52:43.616Z,46.37
2023-03-17T16:55:10.777Z,48.58
2023-03-17T16:57:38.869Z,53.19
2023-03-17T17:00:07.660Z,53.01
2023-03-17T17:02:37.495Z,52.75
2023-03-17T17:05:13.505Z,56.37
2023-03-17T17:07:43.001Z,55.86
2023-03-17T17:10:12.301Z,56.50
2023-03-17T17:12:40.417Z,58.29
2023-03-17T17:15:08.901Z,55.80
2023-03-17T17:17:38.131Z,59.45
2023-03-17T17:20:13.860Z,59.58
2023-03-17T17:22:40.672Z,57.91
2023-03-17T17:25:08.195Z,57.17
2023-03-17T17:27:35.170Z,57.47
2023-03-17T17:30:01.996Z,58.65
2023-03-17T17:32:28.768Z,58.33
2023-03-17T17:34:55.612Z,58.19
2023-03-17T17:37:24.125Z,57.42
2023-03-17T17:39:50.892Z,59.52
2023-03-17T17:42:17.627Z,59.08
2023-03-17T17:44:44.392Z,58.08
2023-03-17T17:47:11.221Z,57.22
2023-03-17T17:49:38.211Z,59.15
2023-03-17T17:52:05.290Z,57.51
2023-03-17T17:54:33.539Z,58.45
2023-03-17T17:57:00.608Z,59.97
2023-03-17T17:59:27.638Z,60.70
2023-03-17T18:01:55.539Z,61.88
2023-03-17T18:04:22.453Z,62.70
2023-03-17T18:06:49.217Z,62.65
2023-03-17T18:09:15.924Z,62.55
2023-03-17T18:11:44.248Z,61.46
2023-03-17T18:14:11.458Z,61.46
2023-03-17T18:16:38.615Z,61.95
2023-03-17T18:19:06.968Z,60.07
2023-03-17T18:21:34.937Z,61.87
2023-03-17T18:24:02.749Z,62.28
2023-03-17T18:26:29.465Z,62.83
2023-03-17T18:28:57.660Z,65.18
2023-03-17T18:31:27.767Z,62.48
2023-03-17T18:33:58.368Z,62.55
2023-03-17T18:36:26.105Z,60.95
2023-03-17T18:38:53.074Z,62.30
2023-03-17T18:41:19.870Z,61.59
2023-03-17T18:43:46.586Z,65.38
2023-03-17T18:46:14.837Z,62.84
2023-03-17T18:48:41.791Z,61.48
2023-03-17T18:51:08.706Z,63.01
2023-03-17T18:53:35.925Z,64.42
2023-03-17T18:56:02.804Z,64.31
2023-03-17T18:58:29.584Z,62.89
2023-03-17T19:00:58.326Z,64.08
2023-03-17T19:03:26.817Z,65.74
2023-03-17T19:05:54.201Z,65.50
2023-03-17T19:08:21.356Z,66.35
2023-03-17T19:10:48.265Z,64.59
2023-03-17T19:13:15.728Z,65.78
2023-03-17T19:15:42.642Z,64.68
2023-03-17T19:18:09.626Z,64.87
2023-03-17T19:20:37.790Z,65.57
2023-03-17T19:23:04.638Z,64.00
2023-03-17T19:25:31.473Z,63.15
2023-03-17T19:27:58.260Z,66.67
2023-03-17T19:30:25.109Z,64.22
2023-03-17T19:32:51.931Z,63.67
2023-03-17T19:35:18.815Z,64.89
2023-03-17T19:37:46.950Z,65.42
2023-03-17T19:40:13.935Z,65.03
2023-03-17T19:42:40.827Z,66.45
2023-03-17T19:45:08.742Z,67.82
2023-03-17T19:47:35.496Z,70.77
2023-03-17T19:50:02.283Z,68.37
2023-03-17T19:52:31.815Z,70.27
2023-03-17T19:55:00.070Z,68.92
2023-03-17T19:57:26.933Z,70.49
2023-03-17T19:59:54.903Z,69.92
2023-03-17T20:02:21.736Z,69.14
2023-03-17T20:04:49.042Z,68.63
2023-03-17T20:07:15.835Z,68.86
2023-03-17T20:09:44.405Z,69.68
2023-03-17T20:12:12.627Z,70.60
2023-03-17T20:14:39.597Z,70.23
2023-03-17T20:17:06.510Z,70.32
2023-03-17T20:19:33.629Z,71.04
2023-03-17T20:22:01.161Z,71.67
2023-03-17T20:24:31.499Z,70.22
2023-03-17T20:27:00.879Z,71.95
2023-03-17T20:29:29.753Z,73.76
2023-03-17T20:31:57.325Z,74.51
2023-03-17T20:34:25.059Z,74.84
2023-03-17T20:36:52.021Z,70.15
2023-03-17T20:39:23.993Z,70.74
2023-03-17T20:41:51.528Z,71.12
2023-03-17T20:44:20.602Z,72.28
2023-03-17T20:46:53.236Z,72.97
2023-03-17T20:49:20.642Z,71.49
2023-03-17T20:51:47.871Z,70.63
2023-03-17T20:54:14.671Z,71.89
2023-03-17T20:56:42.778Z,71.03
2023-03-17T20:59:11.676Z,71.00
2023-03-17T21:01:38.460Z,72.61
2023-03-17T21:04:07.173Z,73.28
2023-03-17T21:06:33.942Z,73.46
2023-03-17T21:09:00.766Z,72.28
2023-03-17T21:11:27.529Z,72.06
2023-03-17T21:13:54.486Z,73.23
2023-03-17T21:16:23.533Z,73.03
2023-03-17T21:18:50.819Z,73.47
2023-03-17T21:21:19.525Z,74.05
2023-03-17T21:23:46.276Z,74.60
2023-03-17T21:26:13.984Z,75.98
2023-03-17T21:28:41.807Z,76.76
2023-03-17T21:31:09.017Z,75.02
2023-03-17T21:33:35.776Z,75.62
2023-03-17T21:36:02.871Z,75.86
2023-03-17T21:38:31.023Z,76.52
2023-03-17T21:40:58.186Z,76.27
2023-03-17T21:43:25.089Z,77.15
2023-03-17T21:45:51.950Z,77.54
2023-03-17T21:48:18.755Z,78.49
2023-03-17T21:50:47.132Z,77.24
2023-03-17T21:53:13.907Z,76.93
2023-03-17T21:55:42.124Z,76.22
2023-03-17T21:58:09.072Z,76.67
2023-03-17T22:00:44.642Z,75.71
2023-03-17T22:03:12.660Z,76.80
2023-03-17T22:05:39.564Z,77.27
2023-03-17T22:08:06.680Z,77.60
2023-03-17T22:10:33.629Z,77.04
2023-03-17T22:13:01.972Z,77.42
2023-03-17T22:15:28.907Z,78.05
2023-03-17T22:17:55.885Z,78.62
2023-03-17T22:20:22.678Z,79.49
2023-03-17T22:22:49.398Z,80.19
2023-03-17T22:25:16.334Z,80.68
2023-03-17T22:27:43.119Z,81.14
2023-03-17T22:30:12.199Z,78.97
2023-03-17T22:32:39.087Z,78.62
2023-03-17T22:35:06.678Z,79.51
2023-03-17T22:37:33.909Z,79.29
2023-03-17T22:40:01.530Z,79.93
2023-03-17T22:42:28.385Z,80.66
2023-03-17T22:44:55.223Z,79.17
2023-03-17T22:47:23.704Z,80.78
2023-03-17T22:49:50.945Z,80.10
2023-03-17T22:52:18.121Z,80.73
2023-03-17T22:54:44.910Z,80.84
2023-03-17T22:57:11.824Z,81.23
2023-03-17T22:59:38.550Z,81.41
2023-03-17T23:02:05.513Z,79.95
2023-03-17T23:04:34.300Z,81.30
2023-03-17T23:07:01.449Z,79.36
2023-03-17T23:09:28.266Z,79.76
2023-03-17T23:11:55.071Z,80.86
2023-03-17T23:14:21.823Z,81.49
2023-03-17T23:16:48.798Z,80.71
2023-03-17T23:19:15.840Z,81.11
2023-03-17T23:21:44.120Z,80.78
2023-03-17T23:24:10.989Z,80.42
2023-03-17T23:26:37.931Z,81.35
2023-03-17T23:29:06.468Z,80.56
2023-03-17T23:31:33.245Z,80.22
2023-03-17T23:34:00.520Z,81.25
2023-03-17T23:36:27.424Z,81.36
2023-03-17T23:38:55.948Z,81.21
2023-03-17T23:41:22.771Z,81.75
2023-03-17T23:43:49.553Z,84.89
2023-03-17T23:46:16.404Z,84.84
2023-03-17T23:48:43.428Z,85.60
2023-03-17T23:51:10.664Z,86.99
2023-03-17T23:53:37.436Z,85.38
2023-03-17T23:56:06.188Z,84.47
2023-03-17T23:58:33.063Z,84.32
